createdAt,value
2017-09-29T00:01:54.971Z,13.70
2017-09-29T00:04:22.500Z,13.60
2017-09-29T00:06:49.960Z,15.13
2017-09-29T00:09:17.461Z,15.53
2017-09-29T00:11:45.751Z,16.30
2017-09-29T00:14:13.992Z,15.17
2017-09-29T00:16:41.481Z,14.57
2017-09-29T00:19:09.801Z,16.77
2017-09-29T00:21:37.239Z,15.67
2017-09-29T00:24:04.735Z,18.60
2017-09-29T00:26:32.232Z,23.00
2017-09-29T00:29:00.506Z,25.07
2017-09-29T00:31:28.748Z,22.70
2017-09-29T00:33:56.241Z,19.00
2017-09-29T00:36:24.507Z,19.83
2017-09-29T00:38:51.987Z,21.97
2017-09-29T00:41:20.274Z,18.73
2017-09-29T00:43:47.756Z,18.97
2017-09-29T00:46:15.229Z,18.87
2017-09-29T00:48:42.747Z,18.77
2017-09-29T00:51:10.272Z,18.47
2017-09-29T00:53:37.884Z,18.23
2017-09-29T00:56:05.351Z,17.50
2017-09-29T00:58:32.855Z,13.80
2017-09-29T01:01:00.339Z,13.37
2017-09-29T01:03:28.573Z,14.97
2017-09-29T01:05:56.073Z,12.27
2017-09-29T01:08:24.312Z,12.03
2017-09-29T01:10:51.828Z,11.57
2017-09-29T01:13:19.294Z,12.20
2017-09-29T01:15:46.811Z,13.80
2017-09-29T01:18:15.068Z,11.27
2017-09-29T01:20:42.578Z,13.37
2017-09-29T01:23:10.064Z,14.10
2017-09-29T01:25:37.567Z,13.10
2017-09-29T01:28:05.878Z,16.50
2017-09-29T01:30:33.368Z,15.40
2017-09-29T01:33:00.882Z,17.97
2017-09-29T01:35:28.374Z,18.70
2017-09-29T01:37:55.886Z,16.57
2017-09-29T01:40:24.167Z,16.27
2017-09-29T01:42:52.413Z,16.77
2017-09-29T01:45:19.920Z,15.93
2017-09-29T01:47:47.387Z,13.23
2017-09-29T01:50:14.891Z,13.53
2017-09-29T01:52:42.379Z,12.93
2017-09-29T01:55:09.854Z,13.03
2017-09-29T01:57:37.343Z,13.20
2017-09-29T02:00:04.847Z,13.77
2017-09-29T02:02:33.119Z,12.37
2017-09-29T02:05:01.368Z,13.07
2017-09-29T02:07:28.867Z,13.03
2017-09-29T02:09:57.100Z,14.07
2017-09-29T02:12:24.620Z,12.23
2017-09-29T02:14:52.096Z,13.50
2017-09-29T02:17:19.578Z,13.67
2017-09-29T02:19:47.093Z,15.70
2017-09-29T02:22:14.571Z,14.43
2017-09-29T02:24:42.043Z,14.00
2017-09-29T02:27:09.552Z,13.90
2017-09-29T02:29:37.059Z,15.53
2017-09-29T02:32:04.540Z,14.60
2017-09-29T02:34:32.065Z,17.10
2017-09-29T02:36:59.531Z,19.87
2017-09-29T02:39:27.015Z,19.20
2017-09-29T02:41:54.523Z,21.27
2017-09-29T02:44:21.991Z,26.20
2017-09-29T02:46:49.523Z,37.77
2017-09-29T02:49:17.019Z,27.37
2017-09-29T02:51:44.515Z,21.43
2017-09-29T02:54:11.997Z,22.80
2017-09-29T02:56:41.031Z,21.27
2017-09-29T02:59:09.516Z,21.97
2017-09-29T03:01:40.221Z,21.33
2017-09-29T03:04:09.428Z,21.90
2017-09-29T03:06:36.904Z,20.53
2017-09-29T03:09:04.407Z,21.90
2017-09-29T03:11:32.675Z,22.47
2017-09-29T03:14:00.172Z,19.20
2017-09-29T03:16:27.652Z,19.60
2017-09-29T03:18:55.149Z,18.40
2017-09-29T03:21:22.647Z,18.63
2017-09-29T03:23:50.119Z,19.07
2017-09-29T03:26:17.627Z,20.53
2017-09-29T03:28:45.119Z,18.40
2017-09-29T03:31:12.588Z,18.17
2017-09-29T03:33:40.078Z,17.90
2017-09-29T03:36:07.575Z,18.93
2017-09-29T03:38:35.898Z,18.47
2017-09-29T03:41:03.400Z,17.57
2017-09-29T03:43:30.875Z,17.40
2017-09-29T03:45:59.132Z,16.07
2017-09-29T03:48:26.627Z,17.50
2017-09-29T03:50:56.240Z,17.67
2017-09-29T03:53:25.406Z,19.70
2017-09-29T03:55:53.740Z,19.67
2017-09-29T03:58:25.092Z,19.97
2017-09-29T04:00:52.764Z,19.97
2017-09-29T04:03:20.238Z,18.90
2017-09-29T04:05:48.480Z,19.40
2017-09-29T04:08:16.007Z,19.40
2017-09-29T04:10:44.239Z,17.60
2017-09-29T04:13:11.753Z,19.53
2017-09-29T04:15:39.238Z,18.40
2017-09-29T04:18:06.760Z,20.23
2017-09-29T04:20:34.986Z,18.27
2017-09-29T04:23:02.535Z,17.83
2017-09-29T04:25:30.008Z,18.50
2017-09-29T04:27:57.470Z,18.90
2017-09-29T04:30:25.013Z,20.30
2017-09-29T04:32:52.622Z,19.57
2017-09-29T04:35:20.894Z,17.00
2017-09-29T04:37:49.148Z,21.97
2017-09-29T04:40:16.654Z,21.13
2017-09-29T04:42:44.160Z,19.70
2017-09-29T04:45:11.667Z,19.37
2017-09-29T04:47:39.134Z,17.53
2017-09-29T04:50:06.654Z,18.60
2017-09-29T04:52:34.227Z,17.50
2017-09-29T04:55:02.479Z,18.17
2017-09-29T04:57:29.949Z,18.60
2017-09-29T04:59:57.458Z,18.23
2017-09-29T05:02:24.988Z,19.37
2017-09-29T05:04:53.242Z,19.13
2017-09-29T05:07:20.780Z,20.47
2017-09-29T05:09:48.254Z,18.43
2017-09-29T05:12:15.734Z,16.57
2017-09-29T05:14:44.013Z,17.60
2017-09-29T05:17:12.247Z,17.57
2017-09-29T05:19:39.762Z,16.20
2017-09-29T05:22:08.051Z,16.20
2017-09-29T05:24:35.571Z,15.47
2017-09-29T05:27:03.101Z,15.47
2017-09-29T05:29:30.589Z,18.90
2017-09-29T05:31:58.098Z,21.87
2017-09-29T05:34:25.579Z,21.63
2017-09-29T05:36:53.084Z,21.57
2017-09-29T05:39:21.326Z,25.33
2017-09-29T05:41:48.824Z,19.40
2017-09-29T05:44:17.082Z,22.57
2017-09-29T05:46:45.364Z,18.57
2017-09-29T05:49:13.617Z,19.93
2017-09-29T05:51:41.141Z,19.87
2017-09-29T05:54:08.619Z,21.17
2017-09-29T05:56:36.116Z,20.87
2017-09-29T05:59:04.399Z,21.30
2017-09-29T06:01:32.640Z,23.00
2017-09-29T06:04:00.144Z,21.37
2017-09-29T06:06:28.399Z,23.90
2017-09-29T06:08:55.908Z,21.87
2017-09-29T06:11:23.380Z,24.50
2017-09-29T06:13:50.863Z,22.70
2017-09-29T06:16:18.371Z,23.70
2017-09-29T06:18:45.860Z,24.37
2017-09-29T06:21:13.379Z,22.73
2017-09-29T06:23:41.649Z,23.50
2017-09-29T06:26:09.902Z,24.13
2017-09-29T06:28:37.395Z,22.10
2017-09-29T06:31:05.671Z,22.93
2017-09-29T06:33:33.151Z,27.40
2017-09-29T06:36:00.629Z,22.53
2017-09-29T06:38:28.123Z,23.50
2017-09-29T06:40:55.635Z,24.73
2017-09-29T06:43:23.135Z,25.53
2017-09-29T06:45:51.412Z,25.57
2017-09-29T06:48:19.722Z,23.10
2017-09-29T06:50:47.195Z,24.17
2017-09-29T06:53:14.677Z,26.10
2017-09-29T06:55:42.163Z,21.87
2017-09-29T06:58:10.443Z,21.93
2017-09-29T07:00:39.709Z,24.53
2017-09-29T07:03:07.211Z,22.43
2017-09-29T07:05:35.501Z,25.70
2017-09-29T07:08:03.754Z,25.10
2017-09-29T07:10:31.305Z,26.30
2017-09-29T07:12:58.802Z,23.20
2017-09-29T07:15:26.312Z,23.20
2017-09-29T07:17:53.800Z,22.03
2017-09-29T07:20:21.271Z,24.80
2017-09-29T07:22:49.563Z,24.57
2017-09-29T07:25:19.947Z,23.67
2017-09-29T07:27:52.235Z,23.57
2017-09-29T07:30:20.581Z,28.17
2017-09-29T07:32:48.060Z,26.07
2017-09-29T07:35:15.570Z,24.07
2017-09-29T07:37:43.050Z,25.73
2017-09-29T07:40:10.564Z,25.30
2017-09-29T07:42:38.852Z,23.70
2017-09-29T07:45:06.364Z,25.23
2017-09-29T07:47:33.868Z,23.00
2017-09-29T07:50:01.375Z,23.83
2017-09-29T07:52:28.901Z,21.90
2017-09-29T07:54:56.429Z,21.80
2017-09-29T07:57:24.708Z,23.10
2017-09-29T07:59:52.999Z,21.10
2017-09-29T08:02:20.507Z,22.67
2017-09-29T08:04:48.798Z,21.67
2017-09-29T08:07:16.298Z,22.87
2017-09-29T08:09:43.809Z,21.33
2017-09-29T08:12:11.275Z,20.23
2017-09-29T08:14:38.754Z,19.37
2017-09-29T08:17:07.004Z,22.37
2017-09-29T08:19:34.503Z,22.20
2017-09-29T08:22:02.755Z,22.23
2017-09-29T08:24:31.008Z,23.20
2017-09-29T08:26:58.514Z,24.60
2017-09-29T08:29:26.003Z,23.93
2017-09-29T08:31:54.076Z,25.90
2017-09-29T08:34:21.530Z,28.30
2017-09-29T08:36:49.000Z,27.87
2017-09-29T08:39:16.516Z,29.73
2017-09-29T08:41:44.780Z,32.40
2017-09-29T08:44:13.078Z,31.30
2017-09-29T08:46:40.547Z,32.07
2017-09-29T08:49:08.026Z,31.60
2017-09-29T08:51:35.527Z,29.40
2017-09-29T08:54:03.773Z,31.20
2017-09-29T08:56:31.318Z,27.60
2017-09-29T08:58:58.785Z,30.50
2017-09-29T09:01:26.308Z,30.43
2017-09-29T09:03:53.815Z,30.53
2017-09-29T09:06:21.290Z,28.50
2017-09-29T09:08:48.788Z,28.83
2017-09-29T09:11:16.298Z,29.70
2017-09-29T09:13:43.795Z,32.57
2017-09-29T09:16:11.268Z,30.73
2017-09-29T09:18:38.787Z,31.23
2017-09-29T09:21:06.318Z,31.33
2017-09-29T09:23:33.807Z,32.83
2017-09-29T09:26:01.312Z,33.90
2017-09-29T09:28:28.788Z,27.60
2017-09-29T09:30:56.279Z,21.70
2017-09-29T09:33:25.264Z,24.30
2017-09-29T09:35:52.779Z,25.17
2017-09-29T09:38:20.245Z,25.33
2017-09-29T09:40:47.752Z,24.00
2017-09-29T09:43:15.228Z,26.10
2017-09-29T09:45:43.466Z,25.97
2017-09-29T09:48:10.970Z,25.67
2017-09-29T09:50:39.211Z,26.30
2017-09-29T09:53:06.684Z,24.20
2017-09-29T09:55:34.940Z,24.13
2017-09-29T09:58:02.523Z,19.93
2017-09-29T10:00:30.775Z,24.17
2017-09-29T10:02:58.279Z,24.80
2017-09-29T10:05:25.766Z,22.63
2017-09-29T10:07:53.230Z,24.23
2017-09-29T10:10:20.746Z,23.17
2017-09-29T10:12:49.044Z,22.63
2017-09-29T10:15:16.523Z,22.20
2017-09-29T10:17:44.041Z,24.43
2017-09-29T10:20:12.265Z,23.53
2017-09-29T10:22:39.779Z,19.17
2017-09-29T10:25:08.016Z,24.00
2017-09-29T10:27:35.521Z,22.50
2017-09-29T10:30:03.818Z,21.80
2017-09-29T10:32:31.290Z,22.30
2017-09-29T10:34:58.785Z,22.00
2017-09-29T10:37:26.255Z,21.37
2017-09-29T10:39:54.535Z,24.77
2017-09-29T10:42:22.797Z,24.20
2017-09-29T10:44:50.276Z,23.80
2017-09-29T10:47:18.543Z,18.93
2017-09-29T10:49:46.800Z,20.43
2017-09-29T10:52:14.313Z,19.03
2017-09-29T10:54:41.781Z,19.50
2017-09-29T10:57:09.294Z,20.93
2017-09-29T10:59:36.801Z,19.33
2017-09-29T11:02:04.273Z,19.40
2017-09-29T11:04:31.771Z,20.30
2017-09-29T11:06:59.239Z,20.40
2017-09-29T11:09:27.490Z,17.50
2017-09-29T11:11:55.750Z,19.20
2017-09-29T11:14:23.256Z,19.87
2017-09-29T11:16:51.528Z,19.97
2017-09-29T11:19:19.810Z,19.33
2017-09-29T11:21:48.085Z,18.57
2017-09-29T11:24:16.355Z,15.00
2017-09-29T11:26:44.636Z,14.40
2017-09-29T11:29:12.880Z,13.37
2017-09-29T11:31:40.371Z,13.07
2017-09-29T11:34:08.633Z,11.90
2017-09-29T11:36:36.099Z,12.53
2017-09-29T11:39:04.383Z,12.80
2017-09-29T11:41:32.616Z,10.43
2017-09-29T11:44:00.087Z,8.80
2017-09-29T11:46:27.603Z,9.20
2017-09-29T11:48:55.090Z,7.80
2017-09-29T11:51:22.588Z,8.53
2017-09-29T11:53:50.253Z,8.55
2017-09-29T11:56:18.527Z,7.50
2017-09-29T11:58:46.784Z,8.37
2017-09-29T12:01:15.039Z,8.67
2017-09-29T12:03:42.548Z,7.90
2017-09-29T12:06:10.795Z,8.80
2017-09-29T12:08:38.296Z,7.33
2017-09-29T12:11:05.804Z,8.10
2017-09-29T12:13:33.305Z,7.97
2017-09-29T12:16:01.528Z,8.97
2017-09-29T12:18:29.033Z,8.70
2017-09-29T12:20:57.328Z,9.20
2017-09-29T12:23:25.056Z,11.90
2017-09-29T12:25:52.547Z,11.33
2017-09-29T12:28:20.020Z,12.20
2017-09-29T12:30:47.533Z,11.07
2017-09-29T12:33:15.015Z,10.43
2017-09-29T12:35:43.288Z,12.87
2017-09-29T12:38:11.552Z,12.97
2017-09-29T12:40:39.069Z,13.40
2017-09-29T12:43:06.538Z,14.80
2017-09-29T12:45:34.048Z,13.20
2017-09-29T12:48:01.551Z,13.60
2017-09-29T12:50:29.131Z,14.83
2017-09-29T12:52:58.353Z,14.27
2017-09-29T12:55:26.604Z,12.17
2017-09-29T12:57:54.122Z,13.83
2017-09-29T13:00:21.619Z,13.27
2017-09-29T13:02:49.110Z,15.17
2017-09-29T13:05:17.395Z,15.03
2017-09-29T13:07:45.654Z,16.13
2017-09-29T13:10:13.180Z,16.23
2017-09-29T13:12:40.669Z,16.97
2017-09-29T13:15:08.192Z,17.30
2017-09-29T13:17:35.668Z,17.17
2017-09-29T13:20:04.679Z,17.70
2017-09-29T13:22:32.190Z,20.33
2017-09-29T13:24:59.661Z,19.17
2017-09-29T13:27:27.200Z,17.33
2017-09-29T13:29:54.686Z,17.20
2017-09-29T13:32:22.194Z,18.17
2017-09-29T13:34:50.441Z,17.93
2017-09-29T13:37:17.955Z,18.70
2017-09-29T13:39:45.431Z,17.53
2017-09-29T13:42:12.909Z,16.80
2017-09-29T13:44:40.388Z,18.40
2017-09-29T13:47:08.647Z,17.40
2017-09-29T13:49:36.167Z,19.00
2017-09-29T13:52:03.675Z,19.47
2017-09-29T13:54:31.189Z,19.10
2017-09-29T13:56:58.683Z,19.20
2017-09-29T13:59:26.209Z,19.00
2017-09-29T14:01:53.736Z,18.53
2017-09-29T14:04:22.000Z,18.03
2017-09-29T14:06:49.499Z,19.90
2017-09-29T14:09:17.007Z,20.37
2017-09-29T14:11:44.511Z,19.43
2017-09-29T14:14:11.984Z,19.97
2017-09-29T14:16:39.509Z,18.40
2017-09-29T14:19:07.009Z,18.17
2017-09-29T14:21:34.467Z,17.93
2017-09-29T14:24:01.976Z,18.10
2017-09-29T14:26:30.246Z,18.60
2017-09-29T14:28:58.538Z,19.40
2017-09-29T14:31:26.762Z,19.87
2017-09-29T14:33:54.290Z,18.93
2017-09-29T14:36:21.755Z,18.03
2017-09-29T14:38:49.275Z,17.30
2017-09-29T14:41:16.755Z,18.30
2017-09-29T14:43:45.019Z,19.43
2017-09-29T14:46:13.269Z,20.43
2017-09-29T14:48:40.751Z,19.67
2017-09-29T14:51:09.015Z,19.53
2017-09-29T14:53:36.485Z,17.50
2017-09-29T14:56:04.744Z,18.37
2017-09-29T14:58:32.993Z,18.33
2017-09-29T15:01:00.491Z,18.67
2017-09-29T15:03:27.981Z,19.27
2017-09-29T15:05:55.475Z,19.17
2017-09-29T15:08:22.992Z,18.03
2017-09-29T15:10:50.472Z,18.13
2017-09-29T15:13:17.982Z,19.70
2017-09-29T15:15:46.247Z,19.50
2017-09-29T15:18:13.738Z,18.73
2017-09-29T15:20:42.002Z,18.50
2017-09-29T15:23:10.619Z,18.30
2017-09-29T15:25:38.127Z,19.57
2017-09-29T15:28:05.619Z,17.80
2017-09-29T15:30:33.871Z,20.20
2017-09-29T15:33:01.371Z,17.80
2017-09-29T15:35:28.869Z,19.63
2017-09-29T15:37:56.351Z,18.07
2017-09-29T15:40:23.814Z,19.07
2017-09-29T15:42:52.091Z,18.73
2017-09-29T15:45:20.339Z,18.97
2017-09-29T15:47:47.811Z,19.33
2017-09-29T15:50:15.304Z,18.83
2017-09-29T15:52:42.758Z,18.47
2017-09-29T15:55:10.259Z,18.87
2017-09-29T15:57:37.734Z,17.70
2017-09-29T16:00:05.254Z,18.80
2017-09-29T16:02:32.769Z,18.23
2017-09-29T16:05:00.275Z,18.17
2017-09-29T16:07:27.783Z,18.77
2017-09-29T16:09:55.258Z,18.20
2017-09-29T16:12:23.540Z,18.90
2017-09-29T16:14:51.822Z,19.17
2017-09-29T16:17:20.095Z,19.17
2017-09-29T16:19:48.334Z,19.23
2017-09-29T16:22:15.808Z,19.20
2017-09-29T16:24:43.330Z,19.10
2017-09-29T16:27:10.865Z,19.27
2017-09-29T16:29:38.350Z,19.23
2017-09-29T16:32:05.840Z,19.17
2017-09-29T16:34:33.338Z,18.70
2017-09-29T16:37:00.821Z,18.43
2017-09-29T16:39:28.313Z,19.30
2017-09-29T16:41:55.845Z,20.00
2017-09-29T16:44:23.345Z,18.90
2017-09-29T16:46:50.847Z,23.67
2017-09-29T16:49:18.353Z,21.30
2017-09-29T16:51:45.914Z,50.73
2017-09-29T16:54:13.412Z,47.30
2017-09-29T16:56:40.898Z,40.47
2017-09-29T16:59:08.396Z,34.40
2017-09-29T17:01:36.642Z,22.67
2017-09-29T17:04:04.144Z,19.50
2017-09-29T17:06:32.382Z,18.33
2017-09-29T17:08:59.906Z,15.27
2017-09-29T17:11:27.377Z,15.30
2017-09-29T17:13:54.853Z,15.43
2017-09-29T17:16:22.361Z,15.50
2017-09-29T17:18:50.592Z,14.00
2017-09-29T17:21:18.078Z,15.70
2017-09-29T17:23:45.579Z,17.00
2017-09-29T17:26:13.068Z,14.20
2017-09-29T17:28:40.570Z,16.83
2017-09-29T17:31:08.813Z,16.47
2017-09-29T17:33:36.407Z,16.30
2017-09-29T17:36:03.925Z,16.73
2017-09-29T17:38:31.433Z,16.83
2017-09-29T17:40:58.899Z,16.33
2017-09-29T17:43:26.415Z,16.77
2017-09-29T17:45:54.721Z,20.70
2017-09-29T17:48:23.601Z,19.27
2017-09-29T17:50:51.200Z,19.67
2017-09-29T17:53:18.702Z,17.10
2017-09-29T17:55:46.984Z,16.30
2017-09-29T17:58:14.483Z,15.53
2017-09-29T18:00:41.995Z,15.97
2017-09-29T18:03:09.627Z,16.10
2017-09-29T18:05:37.151Z,18.17
2017-09-29T18:08:05.402Z,16.20
2017-09-29T18:10:32.894Z,16.33
2017-09-29T18:13:00.388Z,16.13
2017-09-29T18:15:28.850Z,14.67
2017-09-29T18:17:56.395Z,14.60
2017-09-29T18:20:24.524Z,14.20
2017-09-29T18:22:52.196Z,16.03
2017-09-29T18:25:20.937Z,17.10
2017-09-29T18:27:50.449Z,20.50
2017-09-29T18:30:18.408Z,16.57
2017-09-29T18:32:46.280Z,18.00
2017-09-29T18:35:14.153Z,16.77
2017-09-29T18:37:42.012Z,19.10
2017-09-29T18:40:10.699Z,21.37
2017-09-29T18:42:38.569Z,19.37
2017-09-29T18:45:12.387Z,20.67
2017-09-29T18:47:41.163Z,23.47
2017-09-29T18:50:09.037Z,18.63
2017-09-29T18:52:37.199Z,19.00
2017-09-29T18:55:05.173Z,16.40
2017-09-29T18:57:33.042Z,16.40
2017-09-29T19:00:00.914Z,14.37
2017-09-29T19:02:28.982Z,15.67
2017-09-29T19:04:56.863Z,14.40
2017-09-29T19:07:26.251Z,15.60
2017-09-29T19:09:54.127Z,14.33
2017-09-29T19:12:22.454Z,15.90
2017-09-29T19:14:49.964Z,14.93
2017-09-29T19:17:17.435Z,15.03
2017-09-29T19:19:44.955Z,13.13
2017-09-29T19:22:12.442Z,12.97
2017-09-29T19:24:39.929Z,13.57
2017-09-29T19:27:07.441Z,13.53
2017-09-29T19:29:34.922Z,16.13
2017-09-29T19:32:02.440Z,20.37
2017-09-29T19:34:30.673Z,16.80
2017-09-29T19:36:58.173Z,18.07
2017-09-29T19:39:26.409Z,19.00
2017-09-29T19:41:53.899Z,20.83
2017-09-29T19:44:22.164Z,23.97
2017-09-29T19:46:51.142Z,20.73
2017-09-29T19:49:18.660Z,16.10
2017-09-29T19:51:46.127Z,15.00
2017-09-29T19:54:13.639Z,11.77
2017-09-29T19:56:41.947Z,14.30
2017-09-29T19:59:10.185Z,17.23
2017-09-29T20:01:37.732Z,16.67
2017-09-29T20:04:05.255Z,20.70
2017-09-29T20:06:32.768Z,21.17
2017-09-29T20:09:00.250Z,20.27
2017-09-29T20:11:28.527Z,20.10
2017-09-29T20:13:56.773Z,17.90
2017-09-29T20:16:24.267Z,20.27
2017-09-29T20:18:51.778Z,20.50
2017-09-29T20:21:19.262Z,19.70
2017-09-29T20:23:48.267Z,22.10
2017-09-29T20:26:16.490Z,20.27
2017-09-29T20:28:44.033Z,20.80
2017-09-29T20:31:11.552Z,18.60
2017-09-29T20:33:39.776Z,16.50
2017-09-29T20:36:07.282Z,13.17
2017-09-29T20:38:34.772Z,14.77
2017-09-29T20:41:02.243Z,13.93
2017-09-29T20:43:30.495Z,13.73
2017-09-29T20:45:58.718Z,21.57
2017-09-29T20:48:26.216Z,26.63
2017-09-29T20:50:53.711Z,25.83
2017-09-29T20:53:21.221Z,18.33
2017-09-29T20:55:48.732Z,16.93
2017-09-29T20:58:16.966Z,16.10
2017-09-29T21:00:45.242Z,16.20
2017-09-29T21:03:13.471Z,15.30
2017-09-29T21:05:40.981Z,13.90
2017-09-29T21:08:09.214Z,16.93
2017-09-29T21:10:36.719Z,14.33
2017-09-29T21:13:04.981Z,16.67
2017-09-29T21:15:32.482Z,14.17
2017-09-29T21:17:59.955Z,14.90
2017-09-29T21:20:27.438Z,11.70
2017-09-29T21:22:54.942Z,14.10
2017-09-29T21:25:23.202Z,14.43
2017-09-29T21:27:50.723Z,13.70
2017-09-29T21:30:18.202Z,13.63
2017-09-29T21:32:46.447Z,14.10
2017-09-29T21:35:13.955Z,13.93
2017-09-29T21:37:41.458Z,14.30
2017-09-29T21:40:08.991Z,17.70
2017-09-29T21:42:37.218Z,16.60
2017-09-29T21:45:04.727Z,17.27
2017-09-29T21:47:32.963Z,18.77
2017-09-29T21:50:00.442Z,17.23
2017-09-29T21:52:28.722Z,17.50
2017-09-29T21:54:57.041Z,16.40
2017-09-29T21:57:24.634Z,15.27
2017-09-29T21:59:52.115Z,15.50
2017-09-29T22:02:19.654Z,16.53
2017-09-29T22:04:47.147Z,16.60
2017-09-29T22:07:15.426Z,17.13
2017-09-29T22:09:43.707Z,16.07
2017-09-29T22:12:11.978Z,15.70
2017-09-29T22:14:40.235Z,15.30
2017-09-29T22:17:08.471Z,15.67
2017-09-29T22:19:36.008Z,15.13
2017-09-29T22:22:03.497Z,15.37
2017-09-29T22:24:31.042Z,15.23
2017-09-29T22:26:58.535Z,15.63
2017-09-29T22:29:26.051Z,14.37
2017-09-29T22:31:53.547Z,15.57
2017-09-29T22:34:21.030Z,16.20
2017-09-29T22:36:48.580Z,17.20
2017-09-29T22:39:17.592Z,16.57
2017-09-29T22:41:45.835Z,13.93
2017-09-29T22:44:13.350Z,13.53
2017-09-29T22:46:40.812Z,16.13
2017-09-29T22:49:08.342Z,13.57
2017-09-29T22:51:36.611Z,14.90
2017-09-29T22:54:05.634Z,14.50
2017-09-29T22:56:33.114Z,14.80
2017-09-29T22:59:00.652Z,14.07
2017-09-29T23:01:28.900Z,13.50
2017-09-29T23:03:56.381Z,13.13
2017-09-29T23:06:24.629Z,15.00
2017-09-29T23:08:52.109Z,15.50
2017-09-29T23:11:20.530Z,16.20
2017-09-29T23:13:48.008Z,17.07
2017-09-29T23:16:15.524Z,18.20
2017-09-29T23:18:43.016Z,20.93
2017-09-29T23:21:10.503Z,21.10
2017-09-29T23:23:38.022Z,19.03
2017-09-29T23:26:07.020Z,18.50
2017-09-29T23:28:37.782Z,18.00
2017-09-29T23:31:05.577Z,17.60
2017-09-29T23:33:33.854Z,17.20
2017-09-29T23:36:02.110Z,17.97
2017-09-29T23:38:29.621Z,17.20
2017-09-29T23:40:57.950Z,17.63
2017-09-29T23:43:25.442Z,16.63
2017-09-29T23:45:52.965Z,14.23
2017-09-29T23:48:20.478Z,15.17
2017-09-29T23:50:47.967Z,15.73
2017-09-29T23:53:15.508Z,16.00
2017-09-29T23:55:42.995Z,15.90
2017-09-29T23:58:10.531Z,14.47
